Time;durP1;ratioP1;P1;durP2;ratioP2;P2;SDS_P1;SDS_P2;PMS_P1;PMS_P2;Temp;Humidity;BMP_temperature;BMP_pressure;BME280_temperature;BME280_humidity;BME280_pressure;Samples;Min_cycle;Max_cycle;Signal;HPM_P1;HPM_P2
2022/01/31 00:02:03;;;;;;;14.20;4.73;;;;;;;;;;4976531;28;20197;-65
2022/01/31 00:04:29;;;;;;;17.43;4.70;;;;;;;;;;4970671;28;20247;-65
2022/01/31 00:06:56;;;;;;;12.83;4.10;;;;;;;;;;4970978;28;20248;-65
2022/01/31 00:09:23;;;;;;;11.93;4.17;;;;;;;;;;4970923;28;20229;-65
2022/01/31 00:12:00;;;;;;;10.67;3.80;;;;;;;;;;4977380;28;20597;-65
2022/01/31 00:14:40;;;;;;;10.17;4.03;;;;;;;;;;4960796;28;20177;-64
2022/01/31 00:17:06;;;;;;;12.53;3.90;;;;;;;;;;4967539;28;20742;-64
2022/01/31 00:19:32;;;;;;;12.67;4.10;;;;;;;;;;4951287;28;20261;-66
2022/01/31 00:21:58;;;;;;;13.93;4.17;;;;;;;;;;4971416;28;20843;-65
2022/01/31 00:24:24;;;;;;;15.07;4.03;;;;;;;;;;4953007;28;20280;-65
2022/01/31 00:26:50;;;;;;;17.13;4.20;;;;;;;;;;4972565;28;20283;-64
2022/01/31 00:29:17;;;;;;;12.83;3.50;;;;;;;;;;4962474;28;20206;-64
2022/01/31 00:31:43;;;;;;;14.13;3.93;;;;;;;;;;4974101;28;20209;-64
2022/01/31 00:34:09;;;;;;;10.20;3.97;;;;;;;;;;4952578;28;20202;-64
2022/01/31 00:36:34;;;;;;;9.87;3.40;;;;;;;;;;4968742;28;20208;-64
2022/01/31 00:39:01;;;;;;;11.47;4.10;;;;;;;;;;4971526;28;20200;-64
2022/01/31 00:41:26;;;;;;;14.40;3.70;;;;;;;;;;4975401;28;20198;-64
2022/01/31 00:44:31;;;;;;;12.30;4.00;;;;;;;;;;4960137;28;20676;-65
2022/01/31 00:46:53;;;;;;;15.33;4.10;;;;;;;;;;4969581;28;20300;-64
2022/01/31 00:49:33;;;;;;;14.03;3.90;;;;;;;;;;4946094;28;20212;-64
2022/01/31 00:51:59;;;;;;;14.23;3.90;;;;;;;;;;4965009;28;20224;-65
2022/01/31 00:54:25;;;;;;;10.23;4.00;;;;;;;;;;4981427;28;20202;-65
2022/01/31 00:56:51;;;;;;;11.73;3.90;;;;;;;;;;4976210;28;20202;-65
2022/01/31 00:59:17;;;;;;;14.57;5.17;;;;;;;;;;4958125;28;20218;-64
2022/01/31 01:01:43;;;;;;;15.33;4.13;;;;;;;;;;4967550;28;20285;-65
2022/01/31 01:04:09;;;;;;;14.60;4.63;;;;;;;;;;4976044;28;20241;-64
2022/01/31 01:06:35;;;;;;;14.67;4.70;;;;;;;;;;4964315;28;20795;-65
2022/01/31 01:09:01;;;;;;;11.47;4.00;;;;;;;;;;4968173;28;20326;-66
2022/01/31 01:11:27;;;;;;;13.30;4.50;;;;;;;;;;4972787;28;20244;-65
2022/01/31 01:13:53;;;;;;;10.23;3.67;;;;;;;;;;4954071;28;20621;-65
2022/01/31 01:16:19;;;;;;;13.83;3.90;;;;;;;;;;4951981;28;20244;-65
2022/01/31 01:18:45;;;;;;;13.47;3.87;;;;;;;;;;4950581;28;25376;-65
2022/01/31 01:21:11;;;;;;;15.67;4.40;;;;;;;;;;4957817;28;20222;-65
2022/01/31 01:23:37;;;;;;;10.50;3.67;;;;;;;;;;4959681;28;20711;-65
2022/01/31 01:26:03;;;;;;;11.43;4.00;;;;;;;;;;4961703;28;20531;-65
2022/01/31 01:28:29;;;;;;;9.30;3.30;;;;;;;;;;4956058;28;20670;-65
2022/01/31 01:30:56;;;;;;;14.13;3.60;;;;;;;;;;4963662;28;21391;-65
2022/01/31 01:33:23;;;;;;;15.97;4.13;;;;;;;;;;4979889;28;20197;-64
2022/01/31 01:35:51;;;;;;;12.37;3.67;;;;;;;;;;4987329;28;20189;-66
2022/01/31 01:38:17;;;;;;;8.73;3.67;;;;;;;;;;4947726;28;20811;-65
2022/01/31 01:40:44;;;;;;;10.10;3.43;;;;;;;;;;4951954;28;21975;-64
2022/01/31 01:43:10;;;;;;;11.43;3.77;;;;;;;;;;4947114;28;20252;-64
2022/01/31 01:45:36;;;;;;;9.60;3.60;;;;;;;;;;4958934;28;20194;-65
2022/01/31 01:48:02;;;;;;;14.57;3.60;;;;;;;;;;4975984;28;20208;-64
2022/01/31 01:50:28;;;;;;;12.17;3.43;;;;;;;;;;4978345;28;20380;-65
2022/01/31 01:52:54;;;;;;;15.03;4.50;;;;;;;;;;4973304;28;20250;-64
2022/01/31 01:55:20;;;;;;;14.90;3.80;;;;;;;;;;4945180;28;20743;-65
2022/01/31 01:57:46;;;;;;;12.67;3.17;;;;;;;;;;4963924;28;20944;-65
2022/01/31 02:00:18;;;;;;;10.70;3.30;;;;;;;;;;4970491;28;20256;-65
2022/01/31 02:02:44;;;;;;;12.80;3.30;;;;;;;;;;4964468;28;20670;-65
2022/01/31 02:05:10;;;;;;;10.60;3.60;;;;;;;;;;4949213;28;20197;-65
2022/01/31 02:07:37;;;;;;;10.83;3.70;;;;;;;;;;4970062;28;20765;-65
2022/01/31 02:10:04;;;;;;;8.03;3.47;;;;;;;;;;4971898;28;20613;-64
2022/01/31 02:12:40;;;;;;;12.83;3.17;;;;;;;;;;4938487;28;20292;-65
2022/01/31 02:15:07;;;;;;;16.60;3.87;;;;;;;;;;4967689;28;20189;-64
2022/01/31 02:17:33;;;;;;;12.17;3.43;;;;;;;;;;4966339;28;20363;-65
2022/01/31 02:19:59;;;;;;;14.00;3.73;;;;;;;;;;4969067;28;21488;-64
2022/01/31 02:22:25;;;;;;;14.63;3.63;;;;;;;;;;4960013;28;20295;-65
2022/01/31 02:24:51;;;;;;;8.40;3.43;;;;;;;;;;4963775;28;20205;-65
2022/01/31 02:27:37;;;;;;;10.77;3.33;;;;;;;;;;4964931;28;20209;-65
2022/01/31 02:30:04;;;;;;;8.77;2.90;;;;;;;;;;4964758;28;20197;-65
2022/01/31 02:32:30;;;;;;;11.63;3.37;;;;;;;;;;4965628;28;20304;-66
2022/01/31 02:34:57;;;;;;;11.17;3.73;;;;;;;;;;4955449;28;20204;-65
2022/01/31 02:37:22;;;;;;;8.07;3.13;;;;;;;;;;4958750;28;21150;-66
2022/01/31 02:39:48;;;;;;;9.27;3.80;;;;;;;;;;4957857;28;20217;-65
2022/01/31 02:42:14;;;;;;;14.13;3.53;;;;;;;;;;4953997;28;20208;-65
2022/01/31 02:44:41;;;;;;;10.17;3.20;;;;;;;;;;4974186;28;20238;-65
2022/01/31 02:47:11;;;;;;;10.13;3.20;;;;;;;;;;4965865;28;20568;-65
2022/01/31 02:49:47;;;;;;;11.90;3.77;;;;;;;;;;4983311;28;20816;-65
2022/01/31 02:52:14;;;;;;;14.70;3.60;;;;;;;;;;4955699;28;20798;-66
2022/01/31 02:54:40;;;;;;;12.40;4.37;;;;;;;;;;4971224;28;20320;-65
2022/01/31 02:57:06;;;;;;;14.60;3.40;;;;;;;;;;4951938;28;21768;-66
2022/01/31 02:59:32;;;;;;;13.10;4.00;;;;;;;;;;4973566;28;20947;-65
2022/01/31 03:01:58;;;;;;;10.00;3.37;;;;;;;;;;4971772;28;20727;-65
2022/01/31 03:04:24;;;;;;;14.53;3.70;;;;;;;;;;4963195;28;20202;-66
2022/01/31 03:06:50;;;;;;;10.87;3.33;;;;;;;;;;4963400;28;20256;-65
2022/01/31 03:09:16;;;;;;;10.93;3.50;;;;;;;;;;4983018;28;20190;-65
2022/01/31 03:11:42;;;;;;;13.33;3.70;;;;;;;;;;4991309;28;20224;-64
2022/01/31 03:14:09;;;;;;;16.70;3.87;;;;;;;;;;4985496;28;20226;-65
2022/01/31 03:16:39;;;;;;;9.80;2.90;;;;;;;;;;4971661;28;20190;-65
2022/01/31 03:19:05;;;;;;;11.50;3.23;;;;;;;;;;4960958;28;20240;-65
2022/01/31 03:21:32;;;;;;;11.70;3.40;;;;;;;;;;4963251;28;20233;-65
2022/01/31 03:23:57;;;;;;;9.77;3.77;;;;;;;;;;4964497;28;20192;-66
2022/01/31 03:26:23;;;;;;;9.97;3.43;;;;;;;;;;4970822;28;21036;-66
2022/01/31 03:28:52;;;;;;;10.57;3.90;;;;;;;;;;4961068;28;20190;-65
2022/01/31 03:31:21;;;;;;;8.80;3.40;;;;;;;;;;4963092;28;20340;-65
2022/01/31 03:33:47;;;;;;;11.33;3.43;;;;;;;;;;4938518;28;20646;-65
2022/01/31 03:36:13;;;;;;;9.70;3.20;;;;;;;;;;4936133;28;20342;-66
2022/01/31 03:38:41;;;;;;;6.23;3.40;;;;;;;;;;4983683;28;20205;-65
2022/01/31 03:41:10;;;;;;;8.90;3.40;;;;;;;;;;4987076;28;20306;-65
2022/01/31 03:43:36;;;;;;;8.20;3.53;;;;;;;;;;4973864;28;20735;-66
2022/01/31 03:46:02;;;;;;;7.27;3.00;;;;;;;;;;4958074;28;20208;-66
2022/01/31 03:48:29;;;;;;;11.67;3.87;;;;;;;;;;4976905;28;20839;-66
2022/01/31 03:50:57;;;;;;;10.23;3.40;;;;;;;;;;4973986;28;20316;-65
2022/01/31 03:53:23;;;;;;;9.00;3.20;;;;;;;;;;4968423;28;20209;-70
2022/01/31 03:55:49;;;;;;;6.67;3.47;;;;;;;;;;4956076;28;20247;-66
2022/01/31 03:58:15;;;;;;;11.97;3.40;;;;;;;;;;4969549;28;20197;-65
2022/01/31 04:00:41;;;;;;;6.97;3.20;;;;;;;;;;4976867;28;20225;-65
2022/01/31 04:03:07;;;;;;;7.80;2.80;;;;;;;;;;4971870;28;20285;-65
2022/01/31 04:05:33;;;;;;;8.50;3.07;;;;;;;;;;4955787;28;20197;-66
2022/01/31 04:07:59;;;;;;;8.33;3.30;;;;;;;;;;4971053;28;20555;-65
2022/01/31 04:10:26;;;;;;;8.30;2.87;;;;;;;;;;4960910;28;20205;-66
2022/01/31 04:12:52;;;;;;;5.40;2.90;;;;;;;;;;4965830;28;21060;-66
2022/01/31 04:15:17;;;;;;;7.67;3.13;;;;;;;;;;4974257;28;20236;-66
2022/01/31 04:17:44;;;;;;;9.77;3.60;;;;;;;;;;4975234;28;22217;-66
2022/01/31 04:20:10;;;;;;;6.27;2.83;;;;;;;;;;4960546;28;20403;-65
2022/01/31 04:22:41;;;;;;;7.73;3.43;;;;;;;;;;4970002;28;21306;-66
2022/01/31 04:25:17;;;;;;;4.40;3.30;;;;;;;;;;4965688;28;20197;-66
2022/01/31 04:27:50;;;;;;;6.80;3.37;;;;;;;;;;4966178;28;20186;-66
2022/01/31 04:30:16;;;;;;;6.97;3.97;;;;;;;;;;4980613;28;20209;-66
2022/01/31 04:32:42;;;;;;;9.90;3.90;;;;;;;;;;4964218;28;20193;-66
2022/01/31 04:35:08;;;;;;;7.40;4.20;;;;;;;;;;4945313;28;20233;-67
2022/01/31 04:37:34;;;;;;;7.33;4.07;;;;;;;;;;4949143;28;20236;-66
2022/01/31 04:40:00;;;;;;;6.30;3.60;;;;;;;;;;4960187;28;20714;-66
2022/01/31 04:42:26;;;;;;;7.10;3.20;;;;;;;;;;4966687;28;20926;-66
2022/01/31 04:44:54;;;;;;;7.23;4.23;;;;;;;;;;4971641;28;20807;-66
2022/01/31 04:47:20;;;;;;;7.57;3.40;;;;;;;;;;4959827;28;20734;-65
2022/01/31 04:49:46;;;;;;;7.27;3.60;;;;;;;;;;4973081;28;20200;-65
2022/01/31 04:52:12;;;;;;;5.90;3.20;;;;;;;;;;4975132;28;20228;-65
2022/01/31 04:54:38;;;;;;;5.60;3.70;;;;;;;;;;4955453;28;20498;-66
2022/01/31 04:57:04;;;;;;;8.13;3.77;;;;;;;;;;4979291;28;21077;-65
2022/01/31 04:59:32;;;;;;;6.93;3.93;;;;;;;;;;4970788;28;20226;-66
2022/01/31 05:01:58;;;;;;;11.30;4.60;;;;;;;;;;4970601;28;20955;-65
2022/01/31 05:04:26;;;;;;;9.97;4.40;;;;;;;;;;4953305;28;20225;-66
2022/01/31 05:06:52;;;;;;;10.60;4.03;;;;;;;;;;4970050;28;20186;-66
2022/01/31 05:09:18;;;;;;;12.43;4.57;;;;;;;;;;4973387;28;20486;-66
2022/01/31 05:11:45;;;;;;;10.00;4.00;;;;;;;;;;4968235;28;20205;-65
2022/01/31 05:14:11;;;;;;;6.20;3.93;;;;;;;;;;4953982;28;20198;-66
2022/01/31 05:16:37;;;;;;;9.43;4.80;;;;;;;;;;4948980;28;20264;-66
2022/01/31 05:19:03;;;;;;;13.00;4.60;;;;;;;;;;4945052;28;20348;-66
2022/01/31 05:21:29;;;;;;;7.60;4.27;;;;;;;;;;4963955;28;20706;-67
2022/01/31 05:23:54;;;;;;;10.97;4.60;;;;;;;;;;4951708;28;20695;-67
2022/01/31 05:26:20;;;;;;;8.03;4.20;;;;;;;;;;4972449;28;20194;-66
2022/01/31 05:28:46;;;;;;;9.60;4.33;;;;;;;;;;4967010;28;20205;-65
2022/01/31 05:31:12;;;;;;;14.13;4.47;;;;;;;;;;4973573;28;20212;-65
2022/01/31 05:33:38;;;;;;;8.77;4.13;;;;;;;;;;4957078;28;20228;-66
2022/01/31 05:36:04;;;;;;;11.17;4.20;;;;;;;;;;4950039;28;20226;-66
2022/01/31 05:38:34;;;;;;;11.40;4.23;;;;;;;;;;4941580;28;20197;-67
2022/01/31 05:41:04;;;;;;;12.73;4.10;;;;;;;;;;4957338;28;20725;-65
2022/01/31 05:43:31;;;;;;;11.80;4.30;;;;;;;;;;4973119;28;20194;-66
2022/01/31 05:45:56;;;;;;;10.03;4.40;;;;;;;;;;4972193;28;20776;-65
2022/01/31 05:48:22;;;;;;;13.60;4.20;;;;;;;;;;4955435;28;20197;-65
2022/01/31 05:50:48;;;;;;;10.53;4.30;;;;;;;;;;4964834;28;20213;-63
2022/01/31 05:53:14;;;;;;;10.77;4.37;;;;;;;;;;4971299;28;20198;-65
2022/01/31 05:55:40;;;;;;;10.87;4.27;;;;;;;;;;4948645;28;20193;-66
2022/01/31 05:58:06;;;;;;;14.33;4.60;;;;;;;;;;4974250;28;20324;-66
2022/01/31 06:00:32;;;;;;;16.30;4.57;;;;;;;;;;4969982;28;21313;-65
2022/01/31 06:02:59;;;;;;;12.67;3.97;;;;;;;;;;4967005;28;20198;-66
2022/01/31 06:05:25;;;;;;;13.93;4.40;;;;;;;;;;4946003;28;20201;-65
2022/01/31 06:07:51;;;;;;;13.47;3.80;;;;;;;;;;4968390;28;20320;-65
2022/01/31 06:10:17;;;;;;;13.67;4.60;;;;;;;;;;4942365;28;20281;-66
2022/01/31 06:12:44;;;;;;;12.57;4.13;;;;;;;;;;4966072;28;20680;-65
2022/01/31 06:15:10;;;;;;;13.53;3.60;;;;;;;;;;4968161;28;20617;-65
2022/01/31 06:17:36;;;;;;;13.07;3.10;;;;;;;;;;4940949;28;20198;-65
2022/01/31 06:20:02;;;;;;;9.83;3.90;;;;;;;;;;4966165;28;20657;-65
2022/01/31 06:22:28;;;;;;;13.93;3.00;;;;;;;;;;4955007;28;20241;-65
2022/01/31 06:24:54;;;;;;;10.77;3.67;;;;;;;;;;4972608;28;20193;-65
2022/01/31 06:27:20;;;;;;;11.03;3.70;;;;;;;;;;4972079;28;20206;-65
2022/01/31 06:29:47;;;;;;;11.30;3.20;;;;;;;;;;4970846;28;20198;-66
2022/01/31 06:32:13;;;;;;;13.97;2.87;;;;;;;;;;4974948;28;20724;-65
2022/01/31 06:34:38;;;;;;;11.07;3.20;;;;;;;;;;4951320;28;20283;-66
2022/01/31 06:37:05;;;;;;;13.23;3.10;;;;;;;;;;4977861;28;20205;-65
2022/01/31 06:39:31;;;;;;;11.70;3.27;;;;;;;;;;4958727;28;20225;-65
2022/01/31 06:41:57;;;;;;;13.13;3.23;;;;;;;;;;4969442;28;20591;-66
2022/01/31 06:44:23;;;;;;;12.60;2.93;;;;;;;;;;4953584;28;20205;-65
2022/01/31 06:46:49;;;;;;;13.53;3.40;;;;;;;;;;4961944;28;20781;-66
2022/01/31 06:49:14;;;;;;;8.97;2.87;;;;;;;;;;4977129;28;20181;-65
2022/01/31 06:51:40;;;;;;;9.47;3.17;;;;;;;;;;4959824;28;20185;-65
2022/01/31 06:54:07;;;;;;;12.87;2.63;;;;;;;;;;4954000;28;20197;-65
2022/01/31 06:56:38;;;;;;;11.90;2.73;;;;;;;;;;4974290;28;20503;-64
2022/01/31 06:59:03;;;;;;;14.17;3.73;;;;;;;;;;4960566;28;20855;-65
2022/01/31 07:01:29;;;;;;;12.07;2.77;;;;;;;;;;4980121;28;20691;-64
2022/01/31 07:03:55;;;;;;;12.47;2.93;;;;;;;;;;4976588;28;20305;-65
2022/01/31 07:06:23;;;;;;;11.90;2.97;;;;;;;;;;4979275;28;20240;-66
2022/01/31 07:08:50;;;;;;;10.23;2.97;;;;;;;;;;4954910;28;21297;-64
2022/01/31 07:11:21;;;;;;;13.50;3.20;;;;;;;;;;4980764;28;20248;-65
2022/01/31 07:13:49;;;;;;;15.73;3.30;;;;;;;;;;4961619;28;20201;-66
2022/01/31 07:16:15;;;;;;;10.23;3.27;;;;;;;;;;4963345;28;20677;-65
2022/01/31 07:18:42;;;;;;;12.70;3.60;;;;;;;;;;4975054;28;20805;-65
2022/01/31 07:21:12;;;;;;;13.73;2.70;;;;;;;;;;4976500;28;20274;-65
2022/01/31 07:26:36;;;;;;;7.17;2.73;;;;;;;;;;4929118;28;20228;-65
2022/01/31 07:29:02;;;;;;;9.47;2.90;;;;;;;;;;4958817;28;21564;-66
2022/01/31 07:31:28;;;;;;;11.17;2.90;;;;;;;;;;4977180;28;20220;-67
2022/01/31 07:33:54;;;;;;;8.47;2.63;;;;;;;;;;4961470;28;20193;-65
2022/01/31 07:36:22;;;;;;;8.43;2.60;;;;;;;;;;4978470;28;20208;-66
2022/01/31 07:38:47;;;;;;;6.50;2.43;;;;;;;;;;4974554;28;20354;-66
2022/01/31 07:41:14;;;;;;;7.07;2.30;;;;;;;;;;4975924;28;20237;-66
2022/01/31 07:43:43;;;;;;;4.73;2.30;;;;;;;;;;4983534;28;20671;-65
2022/01/31 07:46:09;;;;;;;6.40;2.37;;;;;;;;;;4988764;28;20186;-64
2022/01/31 07:48:35;;;;;;;6.80;2.40;;;;;;;;;;4970235;28;20200;-66
2022/01/31 07:51:01;;;;;;;5.17;2.77;;;;;;;;;;4976627;28;20687;-65
2022/01/31 07:53:27;;;;;;;8.23;2.60;;;;;;;;;;4964468;28;20189;-65
2022/01/31 07:55:53;;;;;;;8.17;2.87;;;;;;;;;;4958191;28;20248;-64
2022/01/31 07:58:20;;;;;;;10.07;2.93;;;;;;;;;;4959163;28;20786;-65
2022/01/31 08:00:46;;;;;;;11.60;3.30;;;;;;;;;;4974449;28;24565;-65
2022/01/31 08:03:12;;;;;;;9.10;3.20;;;;;;;;;;4975521;28;20602;-66
2022/01/31 08:05:38;;;;;;;13.40;3.50;;;;;;;;;;4962219;28;20205;-65
2022/01/31 08:08:04;;;;;;;12.63;3.50;;;;;;;;;;4960921;28;20201;-66
2022/01/31 08:10:31;;;;;;;11.20;3.47;;;;;;;;;;4975754;28;20209;-66
2022/01/31 08:13:00;;;;;;;12.80;3.10;;;;;;;;;;4974796;28;20202;-65
2022/01/31 08:15:28;;;;;;;11.00;3.07;;;;;;;;;;4978080;28;20882;-65
2022/01/31 08:17:54;;;;;;;12.87;3.00;;;;;;;;;;4981817;28;20661;-66
2022/01/31 08:20:20;;;;;;;9.80;2.80;;;;;;;;;;4980975;28;20308;-66
2022/01/31 08:22:46;;;;;;;15.37;3.27;;;;;;;;;;4977754;28;20226;-67
2022/01/31 08:25:15;;;;;;;6.90;3.00;;;;;;;;;;4978942;28;20439;-67
2022/01/31 08:27:47;;;;;;;6.10;2.93;;;;;;;;;;4960300;28;21558;-66
2022/01/31 08:30:19;;;;;;;12.40;3.37;;;;;;;;;;4975134;28;20228;-66
2022/01/31 08:32:57;;;;;;;10.27;2.80;;;;;;;;;;4987196;28;20305;-66
2022/01/31 08:38:08;;;;;;;11.53;2.50;;;;;;;;;;4984549;28;20786;-65
2022/01/31 08:40:34;;;;;;;9.60;2.77;;;;;;;;;;4987813;28;20214;-65
2022/01/31 08:43:00;;;;;;;13.57;3.23;;;;;;;;;;4963607;28;20252;-66
2022/01/31 08:45:26;;;;;;;10.50;2.67;;;;;;;;;;4960478;28;20194;-66
2022/01/31 08:47:52;;;;;;;11.10;3.10;;;;;;;;;;4979937;28;20714;-66
2022/01/31 08:50:18;;;;;;;14.17;3.20;;;;;;;;;;4976629;28;20297;-65
2022/01/31 08:52:44;;;;;;;8.50;2.63;;;;;;;;;;4957307;28;20205;-66
2022/01/31 08:55:11;;;;;;;9.60;2.77;;;;;;;;;;4978970;28;20632;-66
2022/01/31 08:57:37;;;;;;;13.10;3.57;;;;;;;;;;4961621;28;20193;-65
2022/01/31 09:00:06;;;;;;;9.23;3.43;;;;;;;;;;4980557;28;22286;-66
2022/01/31 09:02:41;;;;;;;10.90;2.87;;;;;;;;;;4979311;28;20189;-65
2022/01/31 09:05:07;;;;;;;10.13;2.97;;;;;;;;;;4947915;28;20194;-66
2022/01/31 09:07:33;;;;;;;11.73;2.90;;;;;;;;;;4976132;28;20605;-65
2022/01/31 09:10:01;;;;;;;10.90;2.73;;;;;;;;;;4965057;28;20194;-65
2022/01/31 09:12:30;;;;;;;11.37;3.53;;;;;;;;;;4949932;28;20296;-65
2022/01/31 09:14:56;;;;;;;7.20;3.07;;;;;;;;;;4954346;28;20984;-67
2022/01/31 09:17:22;;;;;;;9.47;3.07;;;;;;;;;;4967652;28;20197;-66
2022/01/31 09:19:48;;;;;;;13.90;2.83;;;;;;;;;;4948860;28;20689;-65
2022/01/31 09:22:14;;;;;;;9.60;3.20;;;;;;;;;;4969153;28;20849;-68
2022/01/31 09:24:41;;;;;;;8.97;3.23;;;;;;;;;;4966880;28;20601;-66
2022/01/31 09:27:08;;;;;;;9.50;2.90;;;;;;;;;;4969557;28;20284;-66
2022/01/31 09:29:34;;;;;;;9.13;2.90;;;;;;;;;;4967851;28;20194;-67
2022/01/31 09:32:02;;;;;;;17.30;3.33;;;;;;;;;;4948522;28;20568;-66
2022/01/31 09:34:30;;;;;;;11.00;3.50;;;;;;;;;;4950825;28;20706;-65
2022/01/31 09:36:56;;;;;;;8.97;3.50;;;;;;;;;;4950705;28;20578;-67
2022/01/31 09:39:22;;;;;;;8.00;3.00;;;;;;;;;;4967012;28;20201;-68
2022/01/31 09:41:53;;;;;;;12.73;3.00;;;;;;;;;;4966636;28;20201;-66
2022/01/31 09:45:10;;;;;;;12.13;3.10;;;;;;;;;;4970668;28;20205;-65
2022/01/31 09:49:58;;;;;;;10.17;2.93;;;;;;;;;;4936534;28;21105;-66
2022/01/31 09:52:24;;;;;;;11.20;2.97;;;;;;;;;;4945864;28;20205;-66
2022/01/31 09:54:50;;;;;;;8.70;2.60;;;;;;;;;;4967294;28;20647;-65
2022/01/31 09:57:17;;;;;;;11.47;2.87;;;;;;;;;;4967045;28;20190;-66
2022/01/31 09:59:42;;;;;;;8.70;3.10;;;;;;;;;;4950737;28;20244;-66
2022/01/31 10:02:09;;;;;;;7.33;3.00;;;;;;;;;;4989855;28;20201;-66
2022/01/31 10:04:36;;;;;;;12.50;3.43;;;;;;;;;;4964920;28;20240;-66
2022/01/31 10:07:02;;;;;;;12.37;3.33;;;;;;;;;;4948962;28;20201;-66
2022/01/31 10:09:28;;;;;;;12.10;2.90;;;;;;;;;;4952417;28;20200;-66
2022/01/31 10:12:07;;;;;;;13.37;3.40;;;;;;;;;;4946893;28;20659;-68
2022/01/31 10:17:25;;;;;;;10.00;3.30;;;;;;;;;;4963607;28;20668;-66
2022/01/31 10:19:51;;;;;;;12.57;3.40;;;;;;;;;;4965573;28;20636;-65
2022/01/31 10:22:17;;;;;;;12.40;3.53;;;;;;;;;;4958148;28;20336;-67
2022/01/31 10:24:44;;;;;;;15.40;3.90;;;;;;;;;;4949071;28;20220;-66
2022/01/31 10:27:10;;;;;;;10.47;4.20;;;;;;;;;;4944216;28;20553;-66
2022/01/31 10:29:36;;;;;;;12.23;3.73;;;;;;;;;;4967244;28;20202;-65
2022/01/31 10:32:03;;;;;;;12.97;3.90;;;;;;;;;;4948414;28;20672;-67
2022/01/31 10:34:31;;;;;;;8.60;3.30;;;;;;;;;;4963941;28;20229;-65
2022/01/31 10:37:04;;;;;;;12.83;4.00;;;;;;;;;;4946573;28;20252;-65
2022/01/31 10:50:45;;;;;;;15.57;3.83;;;;;;;;;;4962355;28;20340;-66
2022/01/31 10:53:11;;;;;;;13.20;3.93;;;;;;;;;;4966104;28;20441;-66
2022/01/31 10:55:37;;;;;;;11.63;4.03;;;;;;;;;;4959937;28;20201;-66
2022/01/31 10:58:04;;;;;;;11.83;3.73;;;;;;;;;;4966030;28;20225;-66
2022/01/31 11:00:37;;;;;;;14.47;4.33;;;;;;;;;;4944098;28;20836;-66
2022/01/31 11:03:21;;;;;;;14.13;4.40;;;;;;;;;;4951253;28;21776;-66
2022/01/31 11:05:50;;;;;;;17.00;4.23;;;;;;;;;;4959090;28;20194;-66
2022/01/31 11:08:16;;;;;;;14.40;4.63;;;;;;;;;;4965467;28;20277;-66
2022/01/31 11:10:42;;;;;;;17.17;4.27;;;;;;;;;;4959377;28;20320;-66
2022/01/31 11:13:09;;;;;;;14.13;4.10;;;;;;;;;;4966133;28;20259;-66
2022/01/31 11:15:35;;;;;;;10.87;3.57;;;;;;;;;;4962628;28;20927;-66
2022/01/31 11:18:01;;;;;;;15.00;4.13;;;;;;;;;;4962678;28;20204;-66
2022/01/31 11:20:27;;;;;;;9.53;3.33;;;;;;;;;;4962678;28;20690;-66
2022/01/31 11:22:57;;;;;;;11.63;3.93;;;;;;;;;;4940676;28;20233;-66
2022/01/31 11:25:23;;;;;;;8.90;3.23;;;;;;;;;;4948946;28;20702;-66
2022/01/31 11:27:50;;;;;;;10.93;3.37;;;;;;;;;;4942808;28;20206;-67
2022/01/31 11:30:16;;;;;;;13.93;3.90;;;;;;;;;;4951398;28;20973;-65
2022/01/31 11:32:44;;;;;;;10.90;3.57;;;;;;;;;;4948998;28;20320;-66
2022/01/31 11:35:10;;;;;;;15.73;3.60;;;;;;;;;;4944724;28;20490;-66
2022/01/31 11:37:36;;;;;;;11.47;3.60;;;;;;;;;;4963941;28;20241;-66
2022/01/31 11:40:03;;;;;;;18.27;3.73;;;;;;;;;;4966296;28;20730;-66
2022/01/31 11:42:29;;;;;;;10.07;3.60;;;;;;;;;;4966812;28;20522;-66
2022/01/31 11:45:04;;;;;;;15.33;4.03;;;;;;;;;;4960862;28;20201;-66
2022/01/31 11:47:31;;;;;;;11.87;3.90;;;;;;;;;;4964329;28;20197;-66
2022/01/31 11:49:57;;;;;;;11.33;3.70;;;;;;;;;;4964914;28;20670;-65
2022/01/31 11:52:24;;;;;;;17.13;4.43;;;;;;;;;;4956761;28;20672;-66
2022/01/31 11:55:00;;;;;;;15.80;3.90;;;;;;;;;;4969259;28;20201;-67
2022/01/31 11:57:27;;;;;;;15.13;4.03;;;;;;;;;;4972176;28;20213;-66
2022/01/31 11:59:54;;;;;;;20.37;4.17;;;;;;;;;;4971024;28;20685;-66
2022/01/31 12:02:20;;;;;;;15.73;4.20;;;;;;;;;;4962920;28;20687;-67
2022/01/31 12:04:49;;;;;;;19.00;4.50;;;;;;;;;;4949081;28;20891;-66
2022/01/31 12:07:38;;;;;;;17.90;4.43;;;;;;;;;;4971221;28;20199;-66
2022/01/31 12:10:04;;;;;;;19.83;4.60;;;;;;;;;;4982392;28;20189;-66
2022/01/31 12:12:43;;;;;;;17.20;4.77;;;;;;;;;;4952219;28;20608;-65
2022/01/31 12:15:34;;;;;;;18.77;4.60;;;;;;;;;;4964261;28;20476;-66
2022/01/31 12:18:27;;;;;;;16.37;4.30;;;;;;;;;;4966681;28;20197;-67
2022/01/31 12:23:57;;;;;;;25.80;6.30;;;;;;;;;;4970152;28;20256;-67
2022/01/31 12:26:27;;;;;;;21.03;5.00;;;;;;;;;;4969326;28;20194;-65
2022/01/31 12:28:56;;;;;;;23.27;5.07;;;;;;;;;;4967902;28;20757;-66
2022/01/31 12:31:29;;;;;;;19.43;4.47;;;;;;;;;;4968899;28;20397;-67
2022/01/31 12:33:55;;;;;;;16.40;4.13;;;;;;;;;;4947932;28;20256;-67
2022/01/31 12:36:37;;;;;;;21.67;4.73;;;;;;;;;;4967736;28;20251;-66
2022/01/31 12:39:26;;;;;;;15.17;4.10;;;;;;;;;;4971887;28;20686;-65
2022/01/31 12:42:01;;;;;;;16.97;4.03;;;;;;;;;;4947288;28;20225;-66
2022/01/31 12:44:29;;;;;;;20.10;4.40;;;;;;;;;;4971223;28;20817;-68
2022/01/31 12:47:15;;;;;;;15.30;3.77;;;;;;;;;;4973339;28;20586;-66
2022/01/31 12:49:41;;;;;;;13.33;3.87;;;;;;;;;;4972546;28;20197;-66
2022/01/31 12:52:08;;;;;;;12.53;3.80;;;;;;;;;;4967347;28;20737;-66
2022/01/31 12:54:35;;;;;;;18.20;3.90;;;;;;;;;;4952782;28;20810;-66
2022/01/31 12:57:05;;;;;;;14.67;4.40;;;;;;;;;;4966476;28;20727;-65
2022/01/31 12:59:31;;;;;;;16.73;4.03;;;;;;;;;;4955963;28;20197;-66
2022/01/31 13:01:58;;;;;;;14.77;4.20;;;;;;;;;;4984921;28;20217;-66
2022/01/31 13:04:27;;;;;;;13.97;3.67;;;;;;;;;;4980186;28;20205;-65
2022/01/31 13:06:53;;;;;;;13.07;3.60;;;;;;;;;;4962700;28;20316;-67
2022/01/31 13:09:26;;;;;;;15.87;4.00;;;;;;;;;;4969440;28;20190;-66
2022/01/31 13:11:53;;;;;;;15.37;3.77;;;;;;;;;;4949769;28;20693;-66
2022/01/31 13:14:22;;;;;;;14.50;3.73;;;;;;;;;;4937896;28;20202;-66
2022/01/31 13:19:47;;;;;;;19.07;4.23;;;;;;;;;;4943613;28;21075;-67
2022/01/31 13:22:28;;;;;;;13.20;3.70;;;;;;;;;;4965909;28;20288;-67
2022/01/31 13:24:58;;;;;;;14.50;3.93;;;;;;;;;;4944257;28;20177;-66
2022/01/31 13:27:32;;;;;;;16.20;4.10;;;;;;;;;;4963546;28;20197;-67
2022/01/31 13:29:58;;;;;;;20.43;4.10;;;;;;;;;;4935907;28;20320;-65
2022/01/31 13:32:25;;;;;;;14.70;3.73;;;;;;;;;;4960009;28;21904;-65
2022/01/31 13:35:01;;;;;;;12.90;3.80;;;;;;;;;;4947459;28;20198;-65
2022/01/31 13:37:34;;;;;;;13.93;4.10;;;;;;;;;;4952032;28;20450;-66
2022/01/31 13:40:02;;;;;;;13.77;3.73;;;;;;;;;;4932611;28;20323;-65
2022/01/31 13:42:33;;;;;;;18.13;4.77;;;;;;;;;;4961959;28;20727;-67
2022/01/31 13:45:00;;;;;;;17.27;3.63;;;;;;;;;;4969408;28;20198;-66
2022/01/31 13:47:35;;;;;;;14.20;3.70;;;;;;;;;;4964756;28;21167;-66
2022/01/31 13:50:03;;;;;;;19.80;4.10;;;;;;;;;;4969921;28;20740;-65
2022/01/31 13:52:33;;;;;;;18.10;4.53;;;;;;;;;;4963687;28;20788;-66
2022/01/31 13:54:59;;;;;;;15.80;3.77;;;;;;;;;;4948873;28;20812;-67
2022/01/31 13:57:25;;;;;;;16.77;4.27;;;;;;;;;;4972151;28;20233;-67
2022/01/31 13:59:52;;;;;;;18.43;5.20;;;;;;;;;;4961333;28;20229;-67
2022/01/31 14:02:19;;;;;;;13.23;4.10;;;;;;;;;;4961375;28;20272;-67
2022/01/31 14:04:45;;;;;;;18.10;3.93;;;;;;;;;;4957636;28;21050;-65
2022/01/31 14:07:26;;;;;;;11.73;3.93;;;;;;;;;;4938418;28;20363;-66
2022/01/31 14:09:53;;;;;;;12.03;3.70;;;;;;;;;;4939014;28;20204;-66
2022/01/31 14:12:19;;;;;;;12.20;3.87;;;;;;;;;;4916427;28;20814;-66
2022/01/31 14:14:45;;;;;;;17.07;3.60;;;;;;;;;;4950629;28;20672;-66
2022/01/31 14:17:11;;;;;;;17.83;4.07;;;;;;;;;;4947970;28;20208;-66
2022/01/31 14:19:39;;;;;;;17.13;3.83;;;;;;;;;;4937068;28;20233;-66
2022/01/31 14:22:06;;;;;;;12.17;3.90;;;;;;;;;;4933611;28;20244;-67
2022/01/31 14:24:33;;;;;;;11.70;3.83;;;;;;;;;;4943658;28;20201;-66
2022/01/31 14:27:02;;;;;;;15.57;3.40;;;;;;;;;;4961317;28;20228;-66
2022/01/31 14:29:28;;;;;;;13.70;3.63;;;;;;;;;;4952692;28;20320;-67
2022/01/31 14:31:54;;;;;;;17.63;4.10;;;;;;;;;;4949666;28;20198;-67
2022/01/31 14:34:23;;;;;;;17.30;4.57;;;;;;;;;;4947029;28;20194;-67
2022/01/31 14:36:52;;;;;;;12.23;4.20;;;;;;;;;;4950368;28;20232;-66
2022/01/31 14:47:41;;;;;;;17.47;4.73;;;;;;;;;;4937888;28;20212;-65
2022/01/31 14:50:08;;;;;;;17.47;4.97;;;;;;;;;;4951234;28;20228;-67
2022/01/31 14:52:34;;;;;;;16.63;4.10;;;;;;;;;;4951941;28;20239;-67
2022/01/31 14:55:04;;;;;;;19.00;4.50;;;;;;;;;;4954436;28;21768;-66
2022/01/31 14:57:30;;;;;;;21.53;5.70;;;;;;;;;;4947535;28;20205;-66
2022/01/31 14:59:57;;;;;;;20.53;5.63;;;;;;;;;;4954755;28;20684;-66
2022/01/31 15:02:23;;;;;;;19.60;4.70;;;;;;;;;;4952054;28;20934;-65
2022/01/31 15:04:48;;;;;;;14.37;4.47;;;;;;;;;;4936130;28;20197;-67
2022/01/31 15:07:15;;;;;;;20.23;4.90;;;;;;;;;;4936595;28;20197;-67
2022/01/31 15:09:41;;;;;;;15.00;4.67;;;;;;;;;;4958354;28;20679;-66
2022/01/31 15:12:07;;;;;;;18.90;5.07;;;;;;;;;;4955990;28;20940;-66
2022/01/31 15:14:33;;;;;;;26.10;5.80;;;;;;;;;;4939721;28;20202;-65